Geneseo, IL (61254)

12:11 PM CDT on September 30, 2016 (GMT -0500)
In Town | | Change Station

Elev 645 ft 41.44 °N, 90.15 °W | Updated 3 minutes ago

Overcast
Overcast
62.1 °F
Feels Like 62.1 °F
N
0.0
Wind Variable Wind from North
Gusts 3.0 mph

Today
High -- | Low -- °F
--% Chance of Precip.
Yesterday
High -- | Low -- °F
Precip. -- in
Pressure 30.18 in
Visibility 10.0 miles
Clouds Overcast 1800 ft
Dew Point 58 °F
Humidity 87%
Rainfall 0.00 in
Snow Depth Not available.
6:56 AM 6:43 PM
Waning Crescent, 0% visible
METAR KMLI 301652Z 02010KT 10SM OVC018 18/13 A3018 RMK AO2 SLP218 T01780133
Pressure 30.18 in
Visibility 10.0 miles
Clouds Overcast 1800 ft
Dew Point 58 °F
Humidity 87%
Rainfall 0.00 in
Snow Depth Not available.
6:56 AM 6:43 PM
Waning Crescent, 0% visible
METAR KMLI 301652Z 02010KT 10SM OVC018 18/13 A3018 RMK AO2 SLP218 T01780133

10-Day Weather Forecast

Almanac

Astronomy

Sep. 30, 2016 Rise Set
Actual Time
Civil Twilight
Nautical Twilight
Astronomical Twilight
Moon
Length of Visible Light
Length of Day
Tomorrow will be .
, % of the Moon is Illuminated

Today's Extremes

State Highs State Lows

Community

WunderPhotos

Upload Photos

1,942,752 photos uploaded!

WunderBlog® & News

Nearby

Air Quality

  Air Quality AQ Index Pollutant
Not available.

Snow Depth

Station Depth Elevation

Earthquake Activity

City Distance Mag. Time & Date
Minimum magnitude displayed is 2.5.

Coastal Water Temperatures

Place Temperature

Stations

Nearby Weather Stations

Station Location Temp. Windchill Dew Point Humidity Wind Precip. Elev Updated Type
                   

Watches & Warnings

There are currently no watches in effect.